Time;durP1;ratioP1;P1;durP2;ratioP2;P2;SDS_P1;SDS_P2;PMS_P1;PMS_P2;Temp;Humidity;BMP_temperature;BMP_pressure;BME280_temperature;BME280_humidity;BME280_pressure;Samples;Min_cycle;Max_cycle;Signal;HPM_P1;HPM_P2
2022/05/18 00:00:27;;;;;;;8.60;4.40;;;;;;;18.47;61.19;100979.03;2102029;28;20040;-71
2022/05/18 00:01:50;;;;;;;9.50;4.55;;;;;;;18.48;61.22;100978.13;2107613;28;20063;-70
2022/05/18 00:03:13;;;;;;;7.90;4.13;;;;;;;18.50;61.20;100977.22;2110570;28;20142;-71
2022/05/18 00:04:36;;;;;;;8.45;4.18;;;;;;;18.52;61.08;100977.16;2101706;28;20048;-70
2022/05/18 00:06:00;;;;;;;10.07;4.60;;;;;;;18.53;60.95;100976.25;2107944;28;20100;-72
2022/05/18 00:07:23;;;;;;;10.40;5.10;;;;;;;18.49;61.02;100975.44;2112069;28;20684;-70
2022/05/18 00:08:46;;;;;;;10.05;4.45;;;;;;;18.48;61.11;100970.09;2108574;28;20044;-71
2022/05/18 00:10:08;;;;;;;9.05;4.47;;;;;;;18.47;61.09;100973.66;2107222;28;20044;-71
2022/05/18 00:11:32;;;;;;;7.53;4.60;;;;;;;18.46;61.16;100967.44;2093892;28;20036;-70
2022/05/18 00:12:56;;;;;;;12.93;4.75;;;;;;;18.45;61.23;100970.13;2102406;28;20048;-71
2022/05/18 00:14:20;;;;;;;9.05;4.93;;;;;;;18.43;61.20;100966.59;2101986;28;20052;-72
2022/05/18 00:15:43;;;;;;;8.95;4.50;;;;;;;18.42;61.27;100963.06;2103694;28;20055;-71
2022/05/18 00:17:06;;;;;;;7.10;3.95;;;;;;;18.40;61.47;100964.84;2103343;28;20044;-71
2022/05/18 00:18:29;;;;;;;9.95;4.72;;;;;;;18.38;61.55;100963.13;2102180;28;20051;-71
2022/05/18 00:19:50;;;;;;;11.30;4.55;;;;;;;18.35;61.68;100964.03;2100346;28;20146;-71
2022/05/18 00:21:14;;;;;;;8.75;5.32;;;;;;;18.33;61.59;100966.72;2106794;28;20106;-70
2022/05/18 00:22:44;;;;;;;9.77;4.47;;;;;;;18.33;61.42;100955.13;2111031;27;20092;-70
2022/05/18 00:24:08;;;;;;;8.82;4.55;;;;;;;18.32;61.37;100951.59;2107205;28;20063;-70
2022/05/18 00:25:31;;;;;;;8.63;5.20;;;;;;;18.35;61.32;100956.00;2103262;28;20051;-70
2022/05/18 00:26:54;;;;;;;9.52;4.97;;;;;;;18.33;61.23;100953.34;2103479;28;20821;-71
2022/05/18 00:28:15;;;;;;;10.40;5.00;;;;;;;18.32;61.33;100951.59;2102824;28;20044;-71
2022/05/18 00:29:39;;;;;;;9.23;4.47;;;;;;;18.32;61.22;100953.38;2103204;28;20147;-71
2022/05/18 00:31:02;;;;;;;7.85;4.45;;;;;;;18.31;61.43;100954.28;2111617;28;20105;-71
2022/05/18 00:32:25;;;;;;;8.82;4.28;;;;;;;18.31;61.45;100954.28;2111494;28;20138;-72
2022/05/18 00:33:46;;;;;;;8.80;4.40;;;;;;;18.32;61.47;100946.22;2111856;28;20583;-71
2022/05/18 00:35:10;;;;;;;9.50;4.90;;;;;;;18.31;61.42;100951.63;2109768;28;20039;-71
2022/05/18 00:36:32;;;;;;;12.02;5.03;;;;;;;18.30;61.59;100945.41;2111589;28;20044;-70
2022/05/18 00:37:53;;;;;;;7.07;4.28;;;;;;;18.28;61.70;100941.84;2105370;28;20074;-71
2022/05/18 00:39:16;;;;;;;8.43;4.20;;;;;;;18.29;61.83;100946.28;2103126;28;20055;-70
2022/05/18 00:40:39;;;;;;;9.30;4.20;;;;;;;18.31;61.91;100947.13;2103382;28;20086;-72
2022/05/18 00:42:02;;;;;;;7.43;4.25;;;;;;;18.33;61.99;100948.00;2103578;28;20040;-71
2022/05/18 00:43:42;;;;;;;7.60;4.22;;;;;;;18.39;61.90;100947.03;2110283;28;20043;-71
2022/05/18 00:45:07;;;;;;;8.63;4.43;;;;;;;18.40;61.85;100942.56;2114196;28;20040;-72
2022/05/18 00:46:29;;;;;;;7.85;4.43;;;;;;;18.29;61.62;100946.28;2111768;28;20676;-71
2022/05/18 00:47:51;;;;;;;10.50;4.10;;;;;;;18.19;61.85;100951.75;2106406;28;20048;-70
2022/05/18 00:49:13;;;;;;;8.82;4.47;;;;;;;18.12;62.08;100947.38;2105826;28;20845;-70
2022/05/18 00:50:38;;;;;;;7.43;4.10;;;;;;;18.06;62.33;100950.13;2103344;28;20535;-70
2022/05/18 00:52:01;;;;;;;10.02;5.35;;;;;;;18.03;62.44;100945.72;2112562;28;20198;-71
2022/05/18 00:53:25;;;;;;;6.88;4.40;;;;;;;18.05;62.39;100943.06;2110355;28;20629;-71
2022/05/18 00:54:50;;;;;;;9.48;4.97;;;;;;;18.08;62.25;100948.34;2112010;28;20704;-71
2022/05/18 00:56:17;;;;;;;8.27;4.15;;;;;;;18.09;62.23;100945.66;2101895;28;20096;-71
2022/05/18 00:57:47;;;;;;;8.98;5.32;;;;;;;18.11;62.27;100942.97;2108029;28;20135;-70
2022/05/18 00:59:13;;;;;;;7.00;4.40;;;;;;;18.13;62.14;100946.50;2112746;28;20051;-71
2022/05/18 01:00:40;;;;;;;8.95;4.40;;;;;;;18.14;62.22;100946.47;2105301;28;20361;-71
2022/05/18 01:02:04;;;;;;;9.13;4.70;;;;;;;18.14;62.18;100954.50;2111558;28;20051;-71
2022/05/18 01:03:29;;;;;;;9.27;4.70;;;;;;;18.13;62.07;100947.38;2110639;28;20036;-70
2022/05/18 01:04:57;;;;;;;9.57;4.85;;;;;;;18.10;62.28;100950.09;2111596;28;20670;-70
2022/05/18 01:06:29;;;;;;;8.90;4.40;;;;;;;18.07;62.35;100947.44;2111256;28;20138;-71
2022/05/18 01:07:53;;;;;;;8.15;4.85;;;;;;;18.04;62.34;100952.84;2105256;28;20047;-71
2022/05/18 01:09:20;;;;;;;10.52;4.47;;;;;;;18.03;62.35;100948.41;2111881;28;20054;-71
2022/05/18 01:10:42;;;;;;;8.13;4.35;;;;;;;18.02;62.44;100951.09;2111897;28;20040;-71
2022/05/18 01:12:07;;;;;;;8.93;4.40;;;;;;;18.00;62.42;100951.09;2111666;28;20123;-71
2022/05/18 01:13:30;;;;;;;9.85;4.70;;;;;;;17.98;62.44;100941.34;2109651;28;20043;-71
2022/05/18 01:14:54;;;;;;;8.85;4.85;;;;;;;18.01;62.58;100942.19;2101613;28;20085;-71
2022/05/18 01:16:18;;;;;;;9.48;4.90;;;;;;;18.03;62.59;100945.72;2109547;28;20518;-71
2022/05/18 01:17:43;;;;;;;8.35;4.68;;;;;;;18.05;62.50;100945.72;2105588;28;20051;-71
2022/05/18 01:19:13;;;;;;;8.68;4.53;;;;;;;18.05;62.40;100948.41;2095344;28;20070;-71
2022/05/18 01:20:38;;;;;;;8.75;5.13;;;;;;;18.03;62.43;100945.72;2103097;28;20147;-70
2022/05/18 01:22:15;;;;;;;8.55;4.22;;;;;;;18.02;62.40;100951.09;2102458;28;20263;-71
2022/05/18 01:23:52;;;;;;;9.05;4.97;;;;;;;18.02;62.39;100945.75;2112445;28;20075;-71
2022/05/18 01:25:27;;;;;;;9.30;4.55;;;;;;;18.00;62.34;100942.19;2113898;28;20170;-71
2022/05/18 01:26:52;;;;;;;9.02;5.15;;;;;;;17.94;62.59;100940.50;2111400;28;20503;-70
2022/05/18 01:28:13;;;;;;;9.07;4.78;;;;;;;17.92;62.66;100937.81;2111361;28;20075;-71
2022/05/18 01:29:36;;;;;;;9.93;4.93;;;;;;;17.92;62.79;100939.59;2109191;28;20039;-70
2022/05/18 01:30:59;;;;;;;9.02;4.78;;;;;;;17.85;62.90;100938.78;2112895;28;20059;-71
2022/05/18 01:32:22;;;;;;;9.80;5.22;;;;;;;17.82;62.95;100941.53;2111434;28;20056;-71
2022/05/18 01:33:43;;;;;;;8.52;4.38;;;;;;;17.78;63.03;100938.91;2111307;28;20096;-71
2022/05/18 01:35:08;;;;;;;8.73;4.55;;;;;;;17.76;63.13;100938.91;2110345;28;20047;-71
2022/05/18 01:36:30;;;;;;;10.55;4.97;;;;;;;17.78;63.35;100941.56;2108961;28;20099;-70
2022/05/18 01:37:57;;;;;;;8.20;4.40;;;;;;;17.80;63.17;100940.63;2113801;28;20400;-71
2022/05/18 01:39:28;;;;;;;8.63;4.90;;;;;;;17.81;63.21;100939.75;2110669;28;20043;-70
2022/05/18 01:40:58;;;;;;;7.72;4.10;;;;;;;17.79;63.19;100946.88;2103750;28;20087;-69
2022/05/18 01:42:29;;;;;;;8.40;4.22;;;;;;;17.75;63.31;100944.28;2108799;28;20088;-68
2022/05/18 01:43:56;;;;;;;11.57;4.90;;;;;;;17.71;63.42;100939.88;2103809;28;20048;-71
2022/05/18 01:45:19;;;;;;;7.97;4.50;;;;;;;17.70;63.50;100946.09;2111762;28;20052;-72
2022/05/18 01:46:40;;;;;;;9.05;4.40;;;;;;;17.72;63.53;100938.97;2111195;28;20040;-71
2022/05/18 01:48:09;;;;;;;10.23;4.18;;;;;;;17.75;63.51;100939.81;2111046;28;20055;-71
2022/05/18 01:49:33;;;;;;;9.23;4.55;;;;;;;17.76;63.70;100938.91;2094224;28;20657;-71
2022/05/18 01:50:56;;;;;;;8.70;4.45;;;;;;;17.78;63.67;100936.25;2106759;28;20103;-71
2022/05/18 01:52:19;;;;;;;9.45;5.28;;;;;;;17.79;63.63;100935.31;2111234;28;20055;-70
2022/05/18 01:53:40;;;;;;;9.13;4.97;;;;;;;17.80;63.75;100923.72;2104367;28;20457;-71
2022/05/18 01:55:04;;;;;;;7.55;4.15;;;;;;;17.79;63.64;100933.53;2110839;28;20043;-71
2022/05/18 01:56:26;;;;;;;8.05;4.93;;;;;;;17.79;63.59;100930.84;2113681;28;20048;-71
2022/05/18 01:57:50;;;;;;;9.07;4.60;;;;;;;17.80;63.55;100923.72;2110852;28;20460;-72
2022/05/18 01:59:13;;;;;;;7.93;4.43;;;;;;;17.74;63.48;100924.69;2105310;28;20056;-70
2022/05/18 02:00:35;;;;;;;7.93;4.43;;;;;;;17.71;63.66;100937.22;2109923;28;20282;-71
2022/05/18 02:01:58;;;;;;;7.95;4.75;;;;;;;17.68;63.86;100924.75;2105420;28;20089;-72
2022/05/18 02:03:22;;;;;;;9.85;5.68;;;;;;;17.71;63.77;100926.53;2107499;28;20044;-71
2022/05/18 02:04:45;;;;;;;8.73;4.57;;;;;;;17.71;63.68;100924.75;2112523;28;20087;-71
2022/05/18 02:06:07;;;;;;;9.98;4.90;;;;;;;17.70;63.63;100928.31;2111017;28;20075;-71
2022/05/18 02:07:28;;;;;;;8.20;3.92;;;;;;;17.69;63.64;100933.66;2110931;28;20044;-70
2022/05/18 02:08:51;;;;;;;8.23;4.95;;;;;;;17.63;63.67;100931.94;2113571;28;20600;-71
2022/05/18 02:10:13;;;;;;;9.23;4.55;;;;;;;17.55;63.88;100931.09;2111588;28;20092;-70
2022/05/18 02:11:36;;;;;;;9.88;4.43;;;;;;;17.48;64.13;100927.59;2101749;28;20503;-71
2022/05/18 02:13:00;;;;;;;7.20;4.43;;;;;;;17.43;64.22;100926.78;2102794;28;20042;-72
2022/05/18 02:14:24;;;;;;;10.93;4.80;;;;;;;17.41;64.40;100933.00;2102845;28;20048;-71
2022/05/18 02:15:48;;;;;;;8.25;4.20;;;;;;;17.43;64.42;100932.09;2110944;28;20044;-72
2022/05/18 02:17:09;;;;;;;10.93;5.43;;;;;;;17.46;64.40;100929.41;2111036;28;20048;-70
2022/05/18 02:18:32;;;;;;;8.05;4.50;;;;;;;17.51;64.26;100937.38;2110726;28;20035;-71
2022/05/18 02:19:53;;;;;;;9.95;4.63;;;;;;;17.52;64.11;100932.00;2104098;28;20075;-72
2022/05/18 02:21:16;;;;;;;8.93;4.93;;;;;;;17.54;63.99;100938.22;2104186;28;20070;-71
2022/05/18 02:22:37;;;;;;;9.35;4.80;;;;;;;17.55;64.01;100933.75;2102293;28;20044;-71
2022/05/18 02:24:00;;;;;;;6.97;4.50;;;;;;;17.56;64.05;100932.88;2108322;28;20047;-71
2022/05/18 02:25:21;;;;;;;7.28;4.25;;;;;;;17.55;64.04;100933.75;2110755;28;20055;-71
2022/05/18 02:26:44;;;;;;;10.52;4.85;;;;;;;17.54;64.14;100935.53;2109945;28;20055;-71
2022/05/18 02:28:08;;;;;;;9.10;5.55;;;;;;;17.56;64.27;100937.31;2110708;28;20455;-71
2022/05/18 02:29:29;;;;;;;9.20;4.75;;;;;;;17.54;64.25;100930.22;2110158;28;20072;-70
2022/05/18 02:30:51;;;;;;;8.02;4.45;;;;;;;17.49;64.36;100932.03;2110799;28;20051;-71
2022/05/18 02:32:14;;;;;;;8.07;4.60;;;;;;;17.42;64.51;100930.34;2110198;28;20088;-70
2022/05/18 02:33:37;;;;;;;10.23;4.93;;;;;;;17.43;64.58;100931.22;2110939;28;20130;-71
2022/05/18 02:34:59;;;;;;;10.38;5.10;;;;;;;17.43;64.43;100934.78;2109998;28;20044;-70
2022/05/18 02:36:22;;;;;;;10.65;5.28;;;;;;;17.44;64.23;100933.00;2104792;28;20052;-71
2022/05/18 02:37:44;;;;;;;12.18;5.25;;;;;;;17.42;64.19;100925.00;2108535;28;20085;-71
2022/05/18 02:39:06;;;;;;;9.02;4.88;;;;;;;17.41;64.12;100931.22;2110471;28;20062;-71
2022/05/18 02:40:28;;;;;;;9.57;5.22;;;;;;;17.42;64.06;100926.78;2110576;28;20043;-71
2022/05/18 02:41:51;;;;;;;9.80;5.00;;;;;;;17.42;64.14;100930.34;2105229;28;20515;-71
2022/05/18 02:43:15;;;;;;;10.82;4.70;;;;;;;17.39;64.18;100930.34;2098125;28;20092;-71
2022/05/18 02:44:37;;;;;;;7.28;4.55;;;;;;;17.35;64.25;100931.28;2108273;28;20150;-71
2022/05/18 02:46:04;;;;;;;9.98;4.88;;;;;;;17.34;64.48;100936.63;2109287;28;20074;-71
2022/05/18 02:47:27;;;;;;;8.73;4.60;;;;;;;17.31;64.60;100940.25;2111561;28;20057;-71
2022/05/18 02:48:51;;;;;;;9.32;4.90;;;;;;;17.35;64.48;100943.75;2109861;28;20051;-71
2022/05/18 02:50:14;;;;;;;10.77;4.80;;;;;;;17.37;64.53;100931.28;2109621;28;20059;-70
2022/05/18 02:51:39;;;;;;;8.43;4.72;;;;;;;17.39;64.51;100938.34;2109148;28;20074;-70
2022/05/18 02:53:02;;;;;;;10.57;4.72;;;;;;;17.40;64.59;100939.25;2109170;28;20534;-71
2022/05/18 02:56:05;;;;;;;9.02;4.95;;;;;;;17.43;64.64;100932.09;2080330;28;20148;-71
2022/05/18 02:57:28;;;;;;;11.00;5.10;;;;;;;17.43;64.58;100944.56;2108095;28;20130;-70
2022/05/18 02:58:54;;;;;;;8.52;5.15;;;;;;;17.41;64.48;100944.56;2109731;28;20102;-70
2022/05/18 03:00:16;;;;;;;9.43;4.65;;;;;;;17.38;64.44;100935.72;2109482;28;20063;-71
2022/05/18 03:01:39;;;;;;;9.50;5.05;;;;;;;17.31;64.48;100940.25;2103822;28;20561;-70
2022/05/18 03:03:02;;;;;;;9.35;5.30;;;;;;;17.25;64.51;100942.97;2105239;28;20054;-70
2022/05/18 03:04:24;;;;;;;8.40;4.40;;;;;;;17.21;64.70;100945.66;2109187;28;20043;-71
2022/05/18 03:05:46;;;;;;;11.23;5.20;;;;;;;17.19;64.84;100935.00;2109206;28;20487;-70
2022/05/18 03:07:08;;;;;;;12.10;5.05;;;;;;;17.20;64.88;100939.41;2109545;28;20044;-71
2022/05/18 03:08:31;;;;;;;14.27;4.85;;;;;;;17.23;64.83;100944.75;2118046;27;20046;-70
2022/05/18 03:09:53;;;;;;;9.75;4.90;;;;;;;17.26;64.92;100942.06;2113137;28;20051;-71
2022/05/18 03:11:16;;;;;;;12.88;5.32;;;;;;;17.32;64.86;100943.78;2110372;28;20051;-71
2022/05/18 03:12:39;;;;;;;9.82;4.95;;;;;;;17.35;64.80;100943.75;2113349;28;20051;-70
2022/05/18 03:14:02;;;;;;;8.55;4.40;;;;;;;17.33;64.82;100945.53;2109271;28;20044;-70
2022/05/18 03:15:25;;;;;;;10.48;5.20;;;;;;;17.30;64.88;100945.56;2109112;28;20060;-70
2022/05/18 03:16:48;;;;;;;10.80;4.88;;;;;;;17.30;65.03;100954.47;2109416;28;20035;-71
2022/05/18 03:18:10;;;;;;;8.15;4.45;;;;;;;17.31;65.07;100953.59;2109902;28;20146;-70
2022/05/18 03:19:33;;;;;;;8.30;4.47;;;;;;;17.32;65.04;100952.69;2109916;28;20043;-71
2022/05/18 03:24:15;;;;;;;8.63;4.53;;;;;;;17.35;65.17;100955.31;2112031;28;20058;-70
2022/05/18 03:25:38;;;;;;;10.85;4.50;;;;;;;17.41;65.11;100963.25;2109605;28;20046;-71
2022/05/18 03:27:00;;;;;;;10.30;5.47;;;;;;;17.48;65.03;100961.41;2109678;28;20071;-71
2022/05/18 03:28:22;;;;;;;10.75;5.20;;;;;;;17.55;64.80;100971.13;2109860;28;20051;-71
2022/05/18 03:29:46;;;;;;;9.70;4.85;;;;;;;17.59;64.78;100970.19;2109696;28;20071;-70
2022/05/18 03:31:08;;;;;;;7.28;4.65;;;;;;;17.68;64.64;100975.50;2101871;28;20048;-71
2022/05/18 03:32:31;;;;;;;8.00;4.38;;;;;;;17.76;64.56;100978.09;2102340;28;20518;-70
2022/05/18 03:33:55;;;;;;;13.27;4.80;;;;;;;17.84;64.44;100973.56;2101973;28;20047;-71
2022/05/18 03:35:19;;;;;;;11.18;4.80;;;;;;;17.93;64.36;100970.75;2111353;28;20082;-69
2022/05/18 03:36:41;;;;;;;8.27;4.68;;;;;;;18.03;64.34;100971.56;2104444;28;20507;-68
2022/05/18 03:38:05;;;;;;;8.38;4.75;;;;;;;18.13;64.30;100981.22;2106408;28;20044;-70
2022/05/18 03:39:28;;;;;;;7.90;4.28;;;;;;;18.20;64.07;100973.13;2100071;28;20047;-70
2022/05/18 03:40:50;;;;;;;8.27;4.80;;;;;;;18.26;64.09;100978.38;2110080;28;20059;-69
2022/05/18 03:42:12;;;;;;;6.30;4.00;;;;;;;18.37;64.08;100975.59;2109797;28;20530;-68
2022/05/18 03:43:33;;;;;;;8.60;4.97;;;;;;;18.47;63.98;100971.00;2108458;28;20075;-69
2022/05/18 03:44:58;;;;;;;9.02;4.55;;;;;;;18.56;63.92;100973.59;2110405;28;20039;-69
2022/05/18 03:46:20;;;;;;;7.32;4.10;;;;;;;18.64;64.00;100969.03;2109665;28;20043;-67
2022/05/18 03:47:43;;;;;;;9.00;4.35;;;;;;;18.76;63.62;100967.97;2108763;28;20031;-70
2022/05/18 03:49:04;;;;;;;7.80;4.45;;;;;;;18.87;63.63;100974.03;2117117;27;20407;-70
2022/05/18 03:50:28;;;;;;;8.80;4.60;;;;;;;18.97;63.26;100976.53;2111423;28;20491;-69
2022/05/18 03:51:51;;;;;;;8.05;4.25;;;;;;;19.08;63.19;100973.72;2112065;28;20047;-68
2022/05/18 03:53:14;;;;;;;8.13;4.55;;;;;;;19.18;63.17;100971.75;2110370;28;20115;-69
2022/05/18 03:54:36;;;;;;;9.20;4.57;;;;;;;19.28;62.91;100979.63;2111227;28;20048;-69
2022/05/18 03:56:00;;;;;;;7.20;3.88;;;;;;;19.39;62.86;100971.41;2120433;27;20043;-70
2022/05/18 03:57:22;;;;;;;9.02;4.03;;;;;;;19.50;62.63;100975.69;2114703;28;20573;-70
2022/05/18 03:58:45;;;;;;;8.55;4.13;;;;;;;19.64;62.45;100975.44;2112162;28;20051;-70
2022/05/18 04:00:12;;;;;;;7.72;4.50;;;;;;;19.77;62.11;100976.09;2108970;28;20092;-69
2022/05/18 04:01:33;;;;;;;5.97;3.97;;;;;;;19.88;61.71;100980.38;2111186;28;20051;-69
2022/05/18 04:02:56;;;;;;;8.60;4.18;;;;;;;20.04;61.19;100980.03;2110282;28;20055;-69
2022/05/18 04:04:18;;;;;;;7.07;3.90;;;;;;;20.18;61.07;100973.50;2110740;28;20043;-69
2022/05/18 04:05:40;;;;;;;10.05;4.10;;;;;;;20.29;60.76;100974.16;2103754;28;20099;-69
2022/05/18 04:07:02;;;;;;;6.38;3.78;;;;;;;20.45;60.16;100971.19;2108472;28;20104;-70
2022/05/18 04:08:25;;;;;;;6.60;4.45;;;;;;;20.61;59.96;100984.22;2111988;28;20055;-70
2022/05/18 04:09:47;;;;;;;8.93;3.88;;;;;;;20.75;59.59;100974.97;2111052;28;20039;-70
2022/05/18 04:11:08;;;;;;;7.88;3.80;;;;;;;20.86;59.22;100976.53;2109401;28;20480;-69
2022/05/18 04:12:31;;;;;;;7.68;4.15;;;;;;;20.99;59.09;100986.06;2111829;28;20031;-69
2022/05/18 04:13:54;;;;;;;7.70;4.00;;;;;;;21.13;58.72;100982.16;2111319;28;20047;-70
2022/05/18 04:15:18;;;;;;;9.35;4.60;;;;;;;21.28;58.45;100976.41;2112026;28;20100;-69
2022/05/18 04:16:42;;;;;;;7.68;3.80;;;;;;;21.43;58.14;100982.31;2111982;28;20062;-69
2022/05/18 04:18:05;;;;;;;7.13;4.07;;;;;;;21.59;57.86;100985.47;2102884;28;20504;-70
2022/05/18 04:19:28;;;;;;;10.60;5.93;;;;;;;21.75;57.53;100980.56;2111247;28;20040;-71
2022/05/18 04:20:51;;;;;;;7.82;4.38;;;;;;;21.91;56.91;100983.72;2111743;28;20743;-70
2022/05/18 04:22:14;;;;;;;8.60;4.65;;;;;;;22.06;56.49;100978.81;2109878;28;20051;-69
2022/05/18 04:23:39;;;;;;;8.45;4.13;;;;;;;22.22;56.11;100988.25;2109647;28;20151;-70
2022/05/18 04:25:04;;;;;;;8.32;4.18;;;;;;;22.37;55.60;100983.34;2103491;28;20048;-69
2022/05/18 04:26:26;;;;;;;7.18;4.07;;;;;;;22.50;55.00;100985.63;2110882;28;20076;-69
2022/05/18 04:27:48;;;;;;;5.88;3.90;;;;;;;22.64;54.69;100979.84;2104596;28;20492;-70
2022/05/18 04:29:11;;;;;;;8.07;4.65;;;;;;;22.79;54.36;100989.25;2103190;28;20395;-69
2022/05/18 04:30:35;;;;;;;5.82;3.97;;;;;;;22.97;53.82;100986.84;2103800;28;20044;-70
2022/05/18 04:31:57;;;;;;;7.57;4.40;;;;;;;23.14;53.42;100983.66;2108329;28;20562;-70
2022/05/18 04:33:22;;;;;;;7.90;3.97;;;;;;;23.33;52.88;100978.53;2111742;28;20154;-69
2022/05/18 04:34:48;;;;;;;7.05;3.53;;;;;;;23.53;52.41;100986.84;2111029;28;20032;-69
2022/05/18 04:36:10;;;;;;;5.78;3.92;;;;;;;23.71;51.88;100988.03;2111504;28;20047;-69
2022/05/18 04:37:31;;;;;;;4.78;3.88;;;;;;;23.88;51.16;100993.72;2109892;28;20055;-70
2022/05/18 04:38:54;;;;;;;6.22;4.03;;;;;;;24.04;50.48;100994.03;2110093;28;20047;-70
2022/05/18 04:40:16;;;;;;;8.23;4.05;;;;;;;24.23;50.21;100996.03;2111921;28;20044;-70
2022/05/18 04:41:38;;;;;;;8.00;4.13;;;;;;;24.39;49.54;100985.56;2111516;28;20089;-70
2022/05/18 04:43:01;;;;;;;7.93;3.60;;;;;;;24.58;49.00;100986.63;2109770;28;20120;-70
2022/05/18 04:44:23;;;;;;;6.97;3.88;;;;;;;24.75;48.73;100985.06;2111671;28;20098;-70
2022/05/18 04:45:50;;;;;;;8.95;3.47;;;;;;;24.95;48.25;100991.47;2104519;28;20139;-69
2022/05/18 04:47:13;;;;;;;7.72;3.63;;;;;;;25.13;47.72;100989.00;2111515;28;20503;-69
2022/05/18 04:48:36;;;;;;;6.63;3.97;;;;;;;25.28;47.38;100985.63;2109399;28;20077;-69
2022/05/18 04:49:57;;;;;;;5.85;3.60;;;;;;;25.49;47.14;100990.13;2109506;28;20043;-70
2022/05/18 04:51:20;;;;;;;9.30;4.10;;;;;;;25.69;46.72;100994.72;2112951;28;20634;-69
2022/05/18 04:52:42;;;;;;;6.78;3.78;;;;;;;25.91;46.33;100992.88;2107289;28;20705;-69
2022/05/18 04:54:04;;;;;;;5.78;3.67;;;;;;;26.12;46.15;100985.63;2107440;28;20048;-70
2022/05/18 04:55:26;;;;;;;7.78;4.30;;;;;;;26.33;45.76;100984.66;2111543;28;20055;-70
2022/05/18 04:56:48;;;;;;;5.53;3.50;;;;;;;26.54;45.30;100996.31;2106515;28;20052;-71
2022/05/18 04:58:11;;;;;;;5.78;3.70;;;;;;;26.78;44.94;100992.44;2109839;28;20726;-70
2022/05/18 04:59:33;;;;;;;8.32;3.53;;;;;;;27.00;44.43;100996.88;2111088;28;20044;-70
2022/05/18 05:01:01;;;;;;;5.43;4.30;;;;;;;27.25;43.86;101000.13;2105254;28;20056;-70
2022/05/18 05:02:23;;;;;;;8.10;3.45;;;;;;;27.47;43.44;100994.53;2109341;28;20084;-69
2022/05/18 05:03:46;;;;;;;9.02;3.58;;;;;;;27.64;42.75;100997.28;2109111;28;20163;-69
2022/05/18 05:05:10;;;;;;;8.00;4.30;;;;;;;27.85;42.25;100990.75;2104149;28;20052;-70
2022/05/18 05:06:33;;;;;;;5.97;3.40;;;;;;;28.06;41.72;101007.75;2103143;28;20044;-70
2022/05/18 05:07:56;;;;;;;8.55;4.05;;;;;;;28.28;41.39;101000.25;2109813;28;20530;-70
2022/05/18 05:09:22;;;;;;;6.07;3.58;;;;;;;28.51;40.96;100997.13;2110415;28;20608;-70
2022/05/18 05:10:44;;;;;;;6.78;3.90;;;;;;;28.74;40.38;100995.91;2109428;28;20130;-71
2022/05/18 05:12:09;;;;;;;8.77;3.67;;;;;;;28.97;40.02;100996.44;2111539;28;20051;-70
2022/05/18 05:13:31;;;;;;;5.78;3.47;;;;;;;29.18;39.69;101001.53;2107655;28;20067;-70
2022/05/18 05:14:53;;;;;;;7.57;3.83;;;;;;;29.36;39.19;101006.88;2111668;28;20047;-70
2022/05/18 05:16:17;;;;;;;6.07;3.25;;;;;;;29.50;38.68;101004.22;2113568;27;20372;-70
2022/05/18 05:17:39;;;;;;;5.75;2.90;;;;;;;29.61;38.53;100999.91;2113798;28;20039;-70
2022/05/18 05:19:02;;;;;;;5.30;3.30;;;;;;;29.80;38.21;101005.09;2109894;28;20043;-70
2022/05/18 05:20:24;;;;;;;6.00;3.92;;;;;;;29.99;38.14;101002.19;2113563;27;20496;-71
2022/05/18 05:21:47;;;;;;;5.05;3.40;;;;;;;30.21;37.95;101001.72;2113018;28;20096;-70
2022/05/18 05:23:10;;;;;;;8.48;3.45;;;;;;;30.43;37.83;101008.47;2109094;28;20108;-70
2022/05/18 05:24:32;;;;;;;9.00;3.90;;;;;;;30.58;37.59;101009.41;2111529;28;20092;-70
2022/05/18 05:25:55;;;;;;;4.68;3.33;;;;;;;30.75;37.58;101014.63;2102644;28;20120;-71
2022/05/18 05:27:17;;;;;;;6.13;3.47;;;;;;;30.91;37.29;101006.34;2110366;28;20071;-70
2022/05/18 05:28:40;;;;;;;3.95;3.15;;;;;;;31.07;37.03;101015.28;2111142;27;20052;-70
2022/05/18 05:30:01;;;;;;;10.57;3.58;;;;;;;31.21;36.42;101012.53;2097172;28;20082;-71
2022/05/18 05:31:26;;;;;;;9.25;3.65;;;;;;;31.38;36.17;101013.25;2113548;27;20719;-70
2022/05/18 05:32:49;;;;;;;6.32;3.38;;;;;;;31.50;36.05;101012.44;2114289;28;20411;-70
2022/05/18 05:34:11;;;;;;;7.07;3.65;;;;;;;31.55;35.93;101008.41;2102726;28;20048;-70
2022/05/18 05:35:34;;;;;;;5.38;2.90;;;;;;;31.58;35.77;101010.03;2108384;28;20620;-70
2022/05/18 05:36:57;;;;;;;9.02;4.10;;;;;;;31.66;35.52;101014.03;2103161;28;20048;-71
2022/05/18 05:38:20;;;;;;;4.45;3.33;;;;;;;31.79;35.10;101016.81;2105231;28;20044;-70
2022/05/18 05:39:41;;;;;;;5.28;3.03;;;;;;;31.86;34.79;101011.81;2107070;28;20411;-71
2022/05/18 05:41:04;;;;;;;6.47;3.50;;;;;;;31.88;35.09;101016.19;2107766;28;20035;-71
2022/05/18 05:42:27;;;;;;;7.45;3.30;;;;;;;32.00;34.88;101011.72;2102741;28;20056;-70
2022/05/18 05:43:50;;;;;;;12.63;3.50;;;;;;;32.15;34.21;101023.47;2105487;28;20092;-70
2022/05/18 05:45:13;;;;;;;5.13;2.90;;;;;;;32.27;34.11;101014.41;2093124;28;20622;-70
2022/05/18 05:46:37;;;;;;;4.78;2.95;;;;;;;32.37;33.72;101021.84;2107780;28;20491;-70
2022/05/18 05:47:59;;;;;;;9.55;4.00;;;;;;;32.42;32.97;101025.16;2102805;28;20056;-71
2022/05/18 05:49:21;;;;;;;5.93;2.97;;;;;;;32.50;32.64;101027.31;2104700;28;20044;-70
2022/05/18 05:50:44;;;;;;;4.80;2.60;;;;;;;32.53;32.32;101028.94;2094025;28;20053;-71
2022/05/18 05:52:07;;;;;;;5.78;3.00;;;;;;;32.53;32.20;101032.56;2106475;28;20047;-70
2022/05/18 05:53:32;;;;;;;4.18;2.90;;;;;;;32.57;32.50;101027.72;2108234;28;20048;-70
2022/05/18 05:54:54;;;;;;;6.22;3.15;;;;;;;32.62;32.66;101025.56;2098684;28;20102;-71
2022/05/18 05:56:16;;;;;;;4.60;2.30;;;;;;;32.65;32.46;101028.06;2104651;28;20051;-71
2022/05/18 05:57:38;;;;;;;;;;;;;;;32.56;32.96;101031.47;2110135;28;20465;-71
2022/05/18 05:59:01;;;;;;;5.38;2.90;;;;;;;32.68;33.22;101027.88;2110723;28;19920;-70
2022/05/18 06:00:24;;;;;;;5.90;2.72;;;;;;;32.67;33.20;101035.22;2109300;28;20052;-70
2022/05/18 06:01:48;;;;;;;5.07;2.40;;;;;;;32.67;33.28;101026.13;2104218;28;20561;-71
2022/05/18 06:03:11;;;;;;;6.47;2.67;;;;;;;32.69;33.23;101032.38;2101604;28;20143;-70
2022/05/18 06:04:34;;;;;;;5.25;2.58;;;;;;;32.70;33.04;101028.63;2109802;28;20483;-70
2022/05/18 06:05:56;;;;;;;6.75;2.80;;;;;;;32.59;32.95;101026.66;2108984;28;20043;-71
2022/05/18 06:07:19;;;;;;;4.15;2.70;;;;;;;32.57;33.01;101030.47;2110707;28;20047;-70
2022/05/18 06:08:42;;;;;;;7.43;2.83;;;;;;;32.57;32.79;101028.59;2108856;28;20107;-70
2022/05/18 06:10:05;;;;;;;5.60;3.00;;;;;;;32.50;32.73;101031.88;2096256;28;20056;-70
2022/05/18 06:11:28;;;;;;;4.55;2.30;;;;;;;32.49;33.01;101032.91;2091467;28;20109;-71
2022/05/18 06:12:51;;;;;;;5.07;2.70;;;;;;;32.53;32.45;101029.81;2091435;28;20051;-70
2022/05/18 06:14:13;;;;;;;5.18;2.30;;;;;;;32.56;32.44;101028.75;2099473;28;20048;-70
2022/05/18 06:15:36;;;;;;;5.00;2.70;;;;;;;32.55;32.23;101032.47;2107694;28;20039;-71
2022/05/18 06:17:00;;;;;;;7.93;2.92;;;;;;;32.52;31.90;101027.19;2102226;28;20329;-71
2022/05/18 06:18:23;;;;;;;6.25;2.85;;;;;;;32.39;32.13;101024.47;2107736;28;20047;-71
2022/05/18 06:19:46;;;;;;;4.53;2.47;;;;;;;32.26;32.31;101029.06;2108558;28;20047;-70
2022/05/18 06:21:08;;;;;;;6.25;2.30;;;;;;;32.19;32.38;101033.19;2096480;28;20079;-71
2022/05/18 06:22:30;;;;;;;4.32;2.75;;;;;;;32.08;32.58;101019.38;2098636;28;20048;-70
2022/05/18 06:23:53;;;;;;;5.28;2.97;;;;;;;32.04;32.33;101025.06;2103387;28;20048;-70
2022/05/18 06:25:18;;;;;;;4.93;2.70;;;;;;;31.94;32.93;101018.50;2104685;28;20086;-70
2022/05/18 06:26:43;;;;;;;8.90;3.00;;;;;;;31.81;33.01;101023.06;2103414;28;20145;-71
2022/05/18 06:28:08;;;;;;;5.47;2.60;;;;;;;31.74;32.76;101020.84;2102075;28;20036;-70
2022/05/18 06:29:31;;;;;;;6.40;3.20;;;;;;;31.65;32.94;101028.69;2098946;28;20032;-71
2022/05/18 06:30:53;;;;;;;6.38;2.72;;;;;;;31.59;32.91;101025.44;2103644;28;20043;-71
2022/05/18 06:32:18;;;;;;;9.25;3.00;;;;;;;31.55;33.12;101029.38;2104752;28;20488;-71